createdAt,value
2019-01-23T00:06:46.966Z,26.63
2019-01-23T00:16:52.297Z,23.90
2019-01-23T00:26:57.594Z,26.47
2019-01-23T00:37:02.925Z,28.87
2019-01-23T00:47:08.234Z,26.73
2019-01-23T00:57:13.607Z,27.10
2019-01-23T01:07:18.898Z,25.37
2019-01-23T01:17:25.297Z,21.30
2019-01-23T01:27:30.613Z,20.90
2019-01-23T01:37:35.873Z,20.57
2019-01-23T01:47:41.257Z,21.17
2019-01-23T01:57:46.583Z,21.90
2019-01-23T02:07:51.968Z,21.13
2019-01-23T02:17:57.269Z,22.57
2019-01-23T02:28:02.626Z,20.23
2019-01-23T02:38:07.979Z,19.33
2019-01-23T02:48:13.358Z,20.87
2019-01-23T02:58:18.715Z,20.47
2019-01-23T03:08:24.040Z,20.83
2019-01-23T03:18:29.375Z,21.13
2019-01-23T03:28:34.665Z,20.80
2019-01-23T03:38:40.144Z,20.53
2019-01-23T03:48:45.463Z,20.43
2019-01-23T03:58:50.972Z,18.93
2019-01-23T04:08:56.357Z,20.17
2019-01-23T04:19:01.769Z,18.80
2019-01-23T04:29:07.115Z,19.80
2019-01-23T04:39:12.480Z,19.33
2019-01-23T04:49:17.785Z,21.50
2019-01-23T04:59:23.088Z,20.67
2019-01-23T05:09:28.414Z,22.00
2019-01-23T05:19:33.759Z,19.30
2019-01-23T05:29:39.230Z,20.33
2019-01-23T05:39:45.002Z,19.90
2019-01-23T05:49:50.371Z,20.47
2019-01-23T06:00:02.317Z,20.13
2019-01-23T06:10:03.660Z,21.27
2019-01-23T06:20:11.225Z,21.43
2019-01-23T06:30:21.761Z,21.67
2019-01-23T06:40:27.122Z,20.97
2019-01-23T06:50:32.484Z,19.30
2019-01-23T07:00:37.853Z,19.50
2019-01-23T07:10:43.272Z,17.70
2019-01-23T07:20:48.502Z,20.70
2019-01-23T07:30:53.963Z,20.23
2019-01-23T07:40:59.423Z,19.13
2019-01-23T07:51:04.789Z,18.63
2019-01-23T08:01:10.195Z,19.90
2019-01-23T08:11:15.578Z,18.47
2019-01-23T08:21:20.924Z,18.20
2019-01-23T08:31:26.377Z,21.10
2019-01-23T08:41:31.758Z,19.33
2019-01-23T08:51:37.183Z,18.43
2019-01-23T09:01:42.643Z,19.17
2019-01-23T09:11:48.006Z,18.60
2019-01-23T09:21:53.571Z,16.70
2019-01-23T09:32:17.051Z,19.30
2019-01-23T09:42:44.636Z,17.37
2019-01-23T09:53:13.120Z,17.50
2019-01-23T10:03:22.934Z,16.80
2019-01-23T10:13:25.578Z,16.87
2019-01-23T10:23:32.070Z,19.40
2019-01-23T10:33:37.702Z,17.90
2019-01-23T10:43:43.348Z,15.87
2019-01-23T10:53:49.346Z,16.90
2019-01-23T11:03:55.084Z,13.47
2019-01-23T11:14:00.678Z,13.03
2019-01-23T11:24:06.440Z,13.30
2019-01-23T11:34:11.998Z,13.17
2019-01-23T11:44:17.535Z,12.83
2019-01-23T11:54:23.176Z,12.77
2019-01-23T12:04:28.768Z,12.47
2019-01-23T12:14:34.411Z,11.63
2019-01-23T12:24:40.110Z,12.60
2019-01-23T12:34:45.952Z,12.60
2019-01-23T12:44:51.666Z,11.83
2019-01-23T12:54:57.231Z,12.00
2019-01-23T13:05:03.063Z,11.53
2019-01-23T13:15:10.654Z,12.70
2019-01-23T13:25:18.149Z,12.27
2019-01-23T13:35:29.030Z,12.17
2019-01-23T13:45:34.721Z,9.90
2019-01-23T13:55:40.373Z,9.07
2019-01-23T14:05:46.063Z,9.37
2019-01-23T14:15:51.665Z,10.70
2019-01-23T14:25:57.433Z,10.10
2019-01-23T14:36:03.163Z,10.97
2019-01-23T14:46:08.797Z,9.20
2019-01-23T14:56:14.386Z,10.60
2019-01-23T15:06:20.052Z,9.93
2019-01-23T15:16:25.829Z,10.47
2019-01-23T15:26:31.391Z,11.13
2019-01-23T15:36:36.994Z,12.40
2019-01-23T15:46:42.507Z,9.97
2019-01-23T15:56:48.048Z,11.80
2019-01-23T16:06:53.747Z,11.20
2019-01-23T16:16:59.305Z,10.27
2019-01-23T16:27:05.085Z,11.57
2019-01-23T16:37:10.871Z,9.27
2019-01-23T16:47:16.418Z,9.63
2019-01-23T18:24:46.058Z,9.80
2019-01-23T18:51:08.615Z,11.13
2019-01-23T19:01:14.394Z,9.43
2019-01-23T19:11:19.764Z,9.23
2019-01-23T19:21:25.071Z,7.47
2019-01-23T19:31:30.526Z,10.77
2019-01-23T19:41:35.982Z,13.50
2019-01-23T19:51:41.275Z,12.23
2019-01-23T20:01:46.684Z,11.17
2019-01-23T20:11:51.978Z,11.43
2019-01-23T20:21:57.338Z,11.87
2019-01-23T20:32:03.655Z,12.60
2019-01-23T20:42:09.033Z,12.40
2019-01-23T20:52:14.396Z,13.23
2019-01-23T21:02:19.946Z,11.07
2019-01-23T21:12:25.276Z,12.80
2019-01-23T21:22:30.589Z,13.03
2019-01-23T21:32:35.915Z,13.13
2019-01-23T21:42:41.895Z,12.27
2019-01-23T21:52:47.214Z,13.30
2019-01-23T22:02:53.639Z,12.13
2019-01-23T22:12:58.947Z,11.93
2019-01-23T22:23:04.450Z,12.97
2019-01-23T22:33:09.748Z,11.07
2019-01-23T22:43:16.080Z,10.67
2019-01-23T22:53:21.407Z,10.40
2019-01-23T23:03:26.710Z,10.20
2019-01-23T23:13:32.025Z,11.10
2019-01-23T23:23:37.399Z,10.40
2019-01-23T23:33:42.868Z,11.60
2019-01-23T23:43:48.187Z,11.47
2019-01-23T23:53:53.522Z,11.40
